| Date | Time | Temp. (oF) | Dew Point (oF) | Rel. Hum. (%) | Press. (in.) | Wind Dir. (deg.) | Wind Speed (mph) | Hourly Rainfall (i n.) |
|
|---|---|---|---|---|---|---|---|---|---|
| 1 | miss | miss | miss | miss | miss | miss | miss | miss | |
| 2 | 08/14 | 15:03 | 72 | 68 | 90 | 30.13 | 150 | 0 | 0.00 |
| 3 | miss | miss | miss | miss | miss | miss | miss | miss | |
| 4 | 08/14 | 15:03 | 72 | 68 | 90 | 30.13 | 150 | 0 | 0.00 |
| 5 | miss | miss | miss | miss | miss | miss | miss | miss | |
| 6 | 08/14 | 15:03 | 72 | 68 | 90 | 30.13 | 150 | 0 | 0.00 |
| 7 | miss | miss | miss | miss | miss | miss | miss | miss | |
| 8 | 08/14 | 15:03 | 72 | 68 | 90 | 30.13 | 150 | 0 | 0.00 |
| 9 | miss | miss | miss | miss | miss | miss | miss | miss | |
| 10 | 08/14 | 15:00 | 73 | 69 | 89 | 30.14 | 330 | 1 | 0.41 |
| 11 | 08/14 | 14:00 | 89 | 72 | 58 | 30.08 | 100 | 6 | 0.00 |
| 12 | 08/14 | 13:00 | 86 | 72 | 64 | 30.08 | 270 | 2 | 0.01 |
| 13 | 08/14 | 12:00 | 83 | 74 | 75 | 30.09 | 100 | 4 | 0.00 |
| 14 | 08/14 | 11:00 | 79 | 71 | 79 | 30.08 | 270 | 2 | 0.00 |
| 15 | miss | miss | miss | miss | miss | miss | miss | miss | |
| 16 | 09/18 | 12:26 | 76 | 68 | 79 | 30.00 | 210 | 4 | 0.00 |
| 17 | miss | miss | miss | miss | miss | miss | miss | miss | |
| 18 | 09/18 | 12:24 | 76 | 68 | 78 | 30.00 | 270 | 9 | 0.00 |
| 19 | miss | miss | miss | miss | miss | miss | miss | miss | |
| 20 | 09/18 | 12:22 | 76 | 68 | 78 | 29.99 | 290 | 9 | 0.00 |
| 21 | miss | miss | miss | miss | miss | miss | miss | miss | |
| 22 | 09/18 | 12:20 | 76 | 66 | 72 | 29.99 | 30 | 7 | 0.00 |
| 23 | miss | miss | miss | miss | miss | miss | miss | miss | |
| 24 | 09/18 | 12:18 | 76 | 66 | 72 | 29.99 | 350 | 9 | 0.00 |
| 25 | miss | miss | miss | miss | miss | miss | miss | miss | |
| 26 | 09/18 | 12:17 | 76 | 66 | 72 | 29.99 | 270 | 9 | 0.00 |
| 27 | miss | miss | miss | miss | miss | miss | miss | miss | |
| 28 | 09/18 | 12:17 | 76 | 66 | 72 | 29.99 | 270 | 9 | 0.00 |
| 29 | miss | miss | miss | miss | miss | miss | miss | miss | |
| 30 | 09/18 | 12:17 | 76 | 66 | 72 | 29.99 | 270 | 9 | 0.00 |
| 31 | miss | miss | miss | miss | miss | miss | miss | miss | |
| 32 | 09/18 | 12:17 | 76 | 66 | 72 | 29.99 | 270 | 9 | 0.00 |
| 33 | miss | miss | miss | miss | miss | miss | miss | miss | |
| 34 | 09/18 | 12:17 | 76 | 66 | 72 | 29.99 | 270 | 9 | 0.00 |
| 35 | miss | miss | miss | miss | miss | miss | miss | miss | |
| 36 | 09/18 | 12:17 | 76 | 66 | 72 | 29.99 | 270 | 9 | 0.00 |
| 37 | miss | miss | miss | miss | miss | miss | miss | miss | |
| 38 | 08/13 | 23:18 | 77 | 65 | 69 | 29.99 | 260 | 10 | 0.00 |
| 39 | miss | miss | miss | miss | miss | miss | miss | miss | |
| 40 | 08/13 | 23:16 | 77 | 65 | 69 | 29.97 | 10 | 7 | 0.00 |
| 41 | miss | miss | miss | miss | miss | miss | miss | miss | |
| 42 | 08/13 | 23:14 | 78 | 66 | 69 | 29.97 | 330 | 9 | 0.00 |
| 43 | miss | miss | miss | miss | miss | miss | miss | miss | |
| 44 | 08/13 | 23:12 | 78 | 66 | 68 | 29.96 | 340 | 2 | 0.00 |
| 45 | miss | miss | miss | miss | miss | miss | miss | miss | |
| 46 | 08/13 | 23:10 | 77 | 65 | 68 | 29.96 | 290 | 7 | 0.00 |
| 47 | miss | miss | miss | miss | miss | miss | miss | miss | |
| 48 | 08/13 | 23:08 | 78 | 66 | 68 | 29.96 | 10 | 6 | 0.00 |
| 49 | miss | miss | miss | miss | miss | miss | miss | miss | |
| 50 | 08/13 | 23:00 | 79 | 66 | 65 | 29.97 | 20 | 6 | 0.00 |
| 51 | 08/13 | 22:00 | 85 | 71 | 65 | 29.93 | 140 | 6 | 0.00 |
| 52 | 08/13 | 21:00 | 86 | 71 | 62 | 29.93 | 290 | 10 | 0.00 |
| 53 | 08/13 | 20:00 | 87 | 71 | 60 | 29.93 | 10 | 9 | 0.00 |
| 54 | 08/13 | 19:00 | 89 | 72 | 58 | 29.93 | 150 | 2 | 0.00 |
| 55 | 08/13 | 18:00 | 89 | 72 | 58 | 29.98 | 110 | 7 | 0.00 |
| 56 | 08/13 | 17:00 | 90 | 71 | 55 | 29.98 | 50 | 10 | 0.00 |
| 57 | 08/13 | 16:00 | 91 | 71 | 54 | 30.01 | 180 | 9 | 0.00 |
| 58 | 08/13 | 15:00 | 90 | 72 | 57 | 30.02 | 140 | 9 | 0.00 |
| 59 | 08/13 | 14:00 | 90 | 73 | 58 | 30.05 | 260 | 7 | 0.00 |
| 60 | 08/13 | 13:00 | 85 | 70 | 63 | 30.05 | 130 | 4 | 0.00 |
| 61 | miss | miss | miss | miss | miss | miss | miss | miss | |
| 62 | 08/12 | 15:28 | 89 | 60 | 39 | 30.14 | 270 | 2 | 0.00 |
| 63 | miss | miss | miss | miss | miss | miss | miss | miss | |
| 64 | 08/12 | 15:26 | 89 | 60 | 39 | 30.14 | 310 | 7 | 0.00 |
| 65 | miss | miss | miss | miss | miss | miss | miss | miss | |
| 66 | 08/12 | 15:24 | 89 | 60 | 39 | 30.14 | 310 | 0 | 0.00 |
| 67 | miss | miss | miss | miss | miss | miss | miss | miss | |
| 68 | 08/12 | 15:22 | 89 | 60 | 39 | 30.14 | 290 | 9 | 0.00 |
| 69 | miss | miss | miss | miss | miss | miss | miss | miss | |
| 70 | 08/12 | 15:20 | 88 | 59 | 39 | 30.14 | 290 | 9 | 0.00 |
| 71 | miss | miss | miss | miss | miss | miss | miss | miss | |
| 72 | 08/12 | 15:18 | 89 | 60 | 39 | 30.14 | 290 | 7 | 0.00 |
| 73 | miss | miss | miss | miss | miss | miss | miss | miss | |
| 74 | 08/12 | 15:17 | 89 | 60 | 39 | 30.14 | 330 | 6 | 0.00 |
| 75 | miss | miss | miss | miss | miss | miss | miss | miss | |
| 76 | 08/12 | 15:17 | 89 | 60 | 39 | 30.14 | 330 | 6 | 0.00 |
| 77 | miss | miss | miss | miss | miss | miss | miss | miss | |
| 78 | 08/12 | 15:17 | 89 | 60 | 39 | 30.14 | 330 | 6 | 0.00 |
| 79 | miss | miss | miss | miss | miss | miss | miss | miss | |
| 80 | 08/12 | 15:17 | 89 | 60 | 39 | 30.14 | 330 | 6 | 0.00 |
| 81 | miss | miss | miss | miss | miss | miss | miss | miss | |
| 82 | 08/12 | 15:00 | 88 | 59 | 39 | 30.14 | 130 | 1 | 0.00 |
| 83 | 08/12 | 14:00 | 88 | 59 | 39 | 30.15 | 150 | 4 | 0.00 |
| 84 | 08/12 | 13:00 | 87 | 60 | 42 | 30.14 | 150 | 2 | 0.00 |
| 85 | 08/12 | 12:00 | 84 | 61 | 47 | 30.15 | 360 | 2 | 0.00 |
| 86 | 08/12 | 11:00 | 80 | 61 | 54 | 30.16 | 330 | 6 | 0.00 |
| 87 | 08/12 | 10:00 | 78 | 60 | 55 | 30.14 | 350 | 1 | 0.00 |
| 88 | 08/12 | 09:00 | 75 | 61 | 64 | 30.13 | 330 | 0 | 0.00 |
| 89 | 08/12 | 08:00 | 71 | 62 | 74 | 30.13 | 310 | 0 | 0.00 |
| 90 | 08/12 | 07:00 | 65 | 60 | 85 | 30.11 | 310 | 0 | 0.00 |
| 91 | 08/12 | 06:00 | 66 | 61 | 85 | 30.15 | 310 | 0 | 0.00 |
| 92 | 08/12 | 05:00 | 66 | 60 | 83 | 30.10 | 310 | 1 | 0.00 |
| 93 | 08/12 | 04:00 | 68 | 61 | 80 | 30.09 | 310 | 0 | 0.00 |
| 94 | 08/12 | 03:00 | 69 | 62 | 79 | 30.09 | 310 | 0 | 0.00 |
| 95 | 08/12 | 02:00 | 70 | 61 | 74 | 30.07 | 310 | 0 | 0.00 |
| 96 | 08/12 | 01:00 | 72 | 62 | 72 | 30.06 | 310 | 0 | 0.00 |
| 97 | 08/12 | 24:00 | 72 | 60 | 68 | 30.06 | 310 | 0 | 0.00 |
| 98 | 08/11 | 23:00 | 75 | 61 | 64 | 30.11 | 310 | 0 | 0.00 |
| 99 | 08/11 | 22:00 | 77 | 60 | 57 | 30.07 | 310 | 0 | 0.00 |
| 100 | 08/11 | 21:00 | 81 | 58 | 47 | 30.02 | 310 | 0 | 0.00 |
| 101 | 08/11 | 20:00 | 84 | 58 | 43 | 30.00 | 320 | 1 | 0.00 |
| 102 | 08/11 | 19:00 | 86 | 59 | 41 | 30.00 | 320 | 4 | 0.00 |
| 103 | 08/11 | 18:00 | 88 | 58 | 38 | 30.01 | 70 | 6 | 0.00 |
| 104 | 08/11 | 17:00 | 89 | 58 | 36 | 30.01 | 330 | 4 | 0.00 |
| 105 | 08/11 | 16:00 | 88 | 58 | 37 | 30.02 | 350 | 6 | 0.00 |
| 106 | 08/11 | 15:00 | 87 | 59 | 40 | 29.98 | 330 | 4 | 0.00 |
| 107 | 08/11 | 14:00 | 86 | 58 | 40 | 29.98 | 330 | 6 | 0.00 |
| 108 | miss | miss | miss | miss | miss | miss | miss | miss | |
| 109 | 08/11 | 12:00 | 83 | 62 | 51 | 30.00 | 270 | 11 | 0.00 |
| 110 | 08/11 | 11:00 | 78 | 61 | 58 | 29.99 | 330 | 2 | 0.00 |
| 111 | 08/11 | 10:00 | 73 | 64 | 75 | 29.97 | 290 | 1 | 0.00 |
| 112 | 08/11 | 09:00 | 70 | 63 | 81 | 29.98 | 130 | 4 | 0.00 |
| 113 | 08/11 | 08:00 | 68 | 62 | 82 | 29.97 | 140 | 0 | 0.00 |
| 114 | 08/11 | 07:00 | 65 | 60 | 84 | 29.97 | 140 | 0 | 0.00 |
| 115 | 08/11 | 06:00 | 67 | 59 | 78 | 29.98 | 140 | 0 | 0.00 |
| 116 | 08/11 | 05:00 | 67 | 58 | 75 | 29.94 | 140 | 0 | 0.00 |